首页
METAR-TAF:

METAR-TAF

机场 :

Natchez-Adams County Airport (Hardy-Anders Field)

纳奇兹, 密西西比州, 美国

纬度: 31-37N, 经度: 091-18W, 海拔: 83米

当前天气观测

该预报发布于25分钟前的13:56 UTC
静风
温度 27°C
湿度 79%
气压 1018 hPa
能見度: 16.1公里
散云层高于1400英尺

METAR: KHEZ 181356Z AUTO 00000KT 10SM SCT014 27/23 A3007 RMK AO2 SLP180 T02670233

时间: 09:21 (14:21 UTC)

预报

该预报发布于3小时和1分钟前的11:20 UTC
预报有效从18日的 12点(UTC)到 19日的 12点(UTC)
风速3节,风向多变
能見度: 10公里
少量云层高于5000英尺
散云层高于10000英尺
从 18日的 1500点(UTC)
风速6节,风向西
能見度: 10公里
多云层高于3500英尺
附近有阵雨
从 18日的 2000点(UTC)
风速8节,风向西转西北
能見度: 10公里
散云层高于4000英尺, 积雨云.
多云层高于6000英尺
小阵雨, 附近有雷暴
从 19日的 0100点(UTC)
风速节,风向
能見度: 9.7公里
散云层高于4000英尺
多云层高于7000英尺
轻雾, 附近有阵雨,

TAF: KHEZ 181120Z 1812/1912 VRB03KT P6SM FEW050 SCT100 FM181500 27006KT P6SM VCSH BKN035 FM182000 30008KT P6SM -SHRA VCTS SCT040CB BKN060 FM190100 00000KT 6SM BR VCSH SCT040 BKN070

超过4000个机场的气象观测和天气预报(METAR&TAF报告)。

可查询的气象台以黄色和红色小点在地图上表示。

将鼠标移到小点上方,可查看气象台名称。

然后点击查看天气观测和预报。

如需切换地图:点击带黑十字的绿色按钮放大地图;点击带横线的绿色按钮缩小地图;或者点击绿色箭头查看邻近地区的地图。


METAR-TAF: